sim
Sign-in with your pilot id or email,
or register
Callsign
Passwort

Schedule Details

Flight Number: OEC2401
Departure: Oslo Gardermoen Airport (ENGM) at 12:00
Arrival: Thessaloniki International Airport (LGTS) at 15:10
Route: OKSA6D OKSAT L996 LALIL L617 ROE L996 DENKO L616 OGDAS DCT BALAP DCT PARAK DCT BEO DCT OLOTA DCT ERANA UT389 ALIKO ALIK1L

Weather Information
Getting current METAR information for ENGM 211220Z 04004KT 010V090 7000 -SHSN BKN007 M02/M03 Q1019 TEMPO SCT008 BKN014
Getting current METAR information for LGTS 211220Z 34013KT 9999 FEW030 16/00 Q1022 NOSIG

Schedule Frequency

Route Map